This is the latest recevied weather packets stored in our database for station/object AD7ZD. If no packets are shown the sender has not sent any weather packets the latest 10 day(s).
| Time | Temp. | Humidity | Pressure | Rain* | Wind** | Luminosity | Snow |
|---|---|---|---|---|---|---|---|
| 1778092509 | 20° C | 41% | 1018.7 hPa | 0 mm | - | 832 W/m² | - |
| 1778092205 | 20.56° C | 42% | 1018.5 hPa | 0 mm | - | 844 W/m² | - |
| 1778091903 | 20° C | 43% | 1018.6 hPa | 0 mm | - | 590 W/m² | - |
| 1778091599 | 20° C | 42% | 1018.5 hPa | 0 mm | - | 935 W/m² | - |
| 1778091298 | 20° C | 41% | 1018.5 hPa | 0 mm | - | 887 W/m² | - |
| 1778090994 | 20° C | 44% | 1018.4 hPa | 0 mm | - | 886 W/m² | - |
| 1778090691 | 20° C | 43% | 1018.7 hPa | 0 mm | - | 986 W/m² | - |
| 1778090387 | 19.44° C | 45% | 1018.6 hPa | 0 mm | - | 974 W/m² | - |
| 1778090084 | 18.89° C | 45% | 1018.7 hPa | 0 mm | - | 856 W/m² | - |
| 1778089780 | 18.89° C | 47% | 1018.6 hPa | 0 mm | - | 886 W/m² | - |
| 1778089478 | 18.89° C | 46% | 1018.8 hPa | 0 mm | - | 803 W/m² | - |
| 1778089174 | 18.33° C | 48% | 1018.7 hPa | 0 mm | - | 921 W/m² | - |
| 1778088872 | 18.33° C | 48% | 1018.5 hPa | 0 mm | - | 716 W/m² | - |
| 1778088564 | 17.78° C | 48% | 1018.5 hPa | 0 mm | - | 732 W/m² | - |
| 1778088261 | 18.33° C | 48% | 1018.4 hPa | 0 mm | - | 800 W/m² | - |
| 1778087957 | 17.78° C | 50% | 1018.3 hPa | 0 mm | - | 840 W/m² | - |
| 1778087655 | 18.33° C | 48% | 1018.3 hPa | 0 mm | - | 843 W/m² | - |
| 1778087352 | 18.33° C | 48% | 1018.5 hPa | 0 mm | - | 791 W/m² | - |
| 1778087047 | 18.89° C | 47% | 1018.4 hPa | 0 mm | - | 714 W/m² | - |
| 1778086742 | 17.78° C | 48% | 1018.3 hPa | 0 mm | - | 689 W/m² | - |
| 1778086439 | 18.33° C | 47% | 1018.4 hPa | 0 mm | - | 745 W/m² | - |
| 1778086135 | 17.78° C | 47% | 1018.2 hPa | 0 mm | - | 757 W/m² | - |
| 1778085832 | 18.33° C | 45% | 1018.5 hPa | 0 mm | - | 738 W/m² | - |
| 1778085530 | 17.78° C | 47% | 1018.3 hPa | 0 mm | - | 684 W/m² | - |
| 1778085224 | 18.33° C | 45% | 1018.4 hPa | 0 mm | - | 607 W/m² | - |
* Rain latest hour (hover to see other rain measurements)
** Current wind speed in m/s (hover to see current wind gust speed)